Time;durP1;ratioP1;P1;durP2;ratioP2;P2;SDS_P1;SDS_P2;PMS_P1;PMS_P2;Temp;Humidity;BMP_temperature;BMP_pressure;BME280_temperature;BME280_humidity;BME280_pressure;Samples;Min_cycle;Max_cycle;Signal;HPM_P1;HPM_P2
2022/06/12 00:30:09;;;;;;;;;;;;;;;12.66;78.58;101033.31;83344;1348;23322;-76
2022/06/12 00:32:19;;;;;;;;;;;;;;;12.63;78.78;101034.30;83824;1343;24337;-76
2022/06/12 00:34:49;;;;;;;;;;;;;;;;;;;;;
2022/06/12 00:37:31;;;;;;;;;;;;;;;12.62;78.98;101032.95;84568;1336;22582;-76
2022/06/12 00:40:16;;;;;;;;;;;;;;;12.63;79.00;101033.79;84619;1335;25278;-76
2022/06/12 00:42:35;;;;;;;;;;;;;;;12.61;79.19;101029.66;84788;1330;22618;-76
2022/06/12 00:49:38;;;;;;;;;;;;;;;12.58;79.21;101026.64;84537;1330;22601;-74
2022/06/12 00:58:00;;;;;;;;;;;;;;;;;;;;;
2022/06/12 01:01:10;;;;;;;;;;;;;;;12.55;79.19;101027.05;84437;1332;22602;-75
2022/06/12 01:17:52;;;;;;;;;;;;;;;12.44;79.30;101015.58;83188;1344;25358;-76
2022/06/12 01:19:59;;;;;;;;;;;;;;;12.41;79.35;101013.04;84310;1339;22586;-76
2022/06/12 01:22:50;;;;;;;;;;;;;;;12.38;79.22;101005.63;84899;1325;22632;-76
2022/06/12 01:25:22;;;;;;;;;;;;;;;12.35;79.29;101004.50;85022;1326;22829;-75
2022/06/12 01:27:48;;;;;;;;;;;;;;;12.30;79.24;101002.40;85018;1326;23787;-75
2022/06/12 01:29:58;;;;;;;;;;;;;;;12.26;79.47;101003.40;85038;1327;22599;-76
2022/06/12 01:36:02;;;;;;;;;;;;;;;12.18;79.56;101005.47;84740;1321;23868;-75
2022/06/12 01:38:41;;;;;;;;;;;;;;;12.11;79.62;101007.40;84866;1328;25990;-75
2022/06/12 01:40:55;;;;;;;;;;;;;;;12.08;79.84;101010.52;84892;1328;23748;-75
2022/06/12 01:47:37;;;;;;;;;;;;;;;;;;;;;
2022/06/12 01:52:34;;;;;;;;;;;;;;;11.90;80.49;101002.91;85023;1327;22609;-75
2022/06/12 01:54:42;;;;;;;;;;;;;;;11.91;80.63;101004.63;85014;1327;24245;-75
2022/06/12 01:57:10;;;;;;;;;;;;;;;11.92;81.00;101007.05;84971;1326;22606;-75
2022/06/12 01:59:18;;;;;;;;;;;;;;;11.95;81.26;101009.40;84878;1325;25338;-75
2022/06/12 02:01:30;;;;;;;;;;;;;;;11.98;81.13;101010.69;84907;1327;22745;-75
2022/06/12 02:47:51;;;;;;;;;;;;;;;11.83;81.76;101000.52;83460;1343;24404;-75
2022/06/12 02:50:09;;;;;;;;;;;;;;;11.83;81.97;100997.37;83943;1341;24250;-75
2022/06/12 02:52:23;;;;;;;;;;;;;;;11.83;81.94;100997.90;83981;1341;22611;-75
2022/06/12 03:05:49;;;;;;;;;;;;;;;12.13;83.12;101007.01;84338;1336;22595;-75
2022/06/12 03:11:19;;;;;;;;;;;;;;;12.35;83.32;101008.00;84153;1336;22687;-75
2022/06/12 03:13:33;;;;;;;;;;;;;;;12.43;83.18;101007.90;84651;1333;22592;-74
2022/06/12 03:15:45;;;;;;;;;;;;;;;12.50;83.22;101006.41;84854;1330;22574;-75
2022/06/12 03:18:00;;;;;;;;;;;;;;;12.58;83.40;101000.34;84986;1326;24655;-76
2022/06/12 03:20:18;;;;;;;;;;;;;;;12.68;83.41;101003.17;85004;1325;24233;-76
2022/06/12 03:22:32;;;;;;;;;;;;;;;12.76;83.46;100999.17;84906;1324;24240;-76
2022/06/12 03:45:43;;;;;;;;;;;;;;;17.49;78.70;100986.40;83059;1353;24340;-75
2022/06/12 03:51:31;;;;;;;;;;;;;;;17.88;73.98;100990.85;82958;1350;22605;-75
2022/06/12 03:53:39;;;;;;;;;;;;;;;17.82;74.33;100993.13;83576;1345;22601;-75
2022/06/12 03:58:08;;;;;;;;;;;;;;;19.28;75.31;100995.49;84702;1326;229853;-75
2022/06/12 04:00:17;;;;;;;;;;;;;;;19.87;73.32;100995.23;84893;1326;22566;-75
2022/06/12 04:02:21;;;;;;;;;;;;;;;20.63;71.60;100989.30;84947;1327;22574;-75
2022/06/12 04:04:25;;;;;;;;;;;;;;;21.45;69.79;100991.23;84933;1322;22582;-75
2022/06/12 04:06:29;;;;;;;;;;;;;;;22.29;67.08;100989.33;84967;1328;22568;-75
2022/06/12 04:08:34;;;;;;;;;;;;;;;23.00;64.18;100988.02;84968;1324;25532;-75
2022/06/12 04:10:38;;;;;;;;;;;;;;;23.67;61.94;100990.05;84997;1324;22603;-75
2022/06/12 04:12:43;;;;;;;;;;;;;;;24.03;59.60;100988.62;84947;1327;23935;-76
2022/06/12 04:14:52;;;;;;;;;;;;;;;23.60;58.23;100987.44;84936;1326;22569;-76
2022/06/12 04:16:56;;;;;;;;;;;;;;;23.01;58.10;100989.73;84909;1321;22622;-75
2022/06/12 04:19:01;;;;;;;;;;;;;;;22.48;58.42;100994.07;84907;1326;22547;-76
2022/06/12 04:21:52;;;;;;;;;;;;;;;22.05;58.93;100994.06;84959;1325;25445;-76
2022/06/12 04:24:46;;;;;;;;;;;;;;;22.16;59.65;100995.54;84955;1327;23160;-76
2022/06/12 04:26:56;;;;;;;;;;;;;;;22.40;60.14;100999.68;84914;1321;22885;-74
2022/06/12 04:29:00;;;;;;;;;;;;;;;22.88;59.52;100995.40;84983;1326;22563;-74
2022/06/12 04:31:13;;;;;;;;;;;;;;;23.51;58.46;100997.05;84928;1326;22574;-75
2022/06/12 04:33:27;;;;;;;;;;;;;;;24.07;57.10;100996.73;84960;1326;22572;-75
2022/06/12 04:35:36;;;;;;;;;;;;;;;24.67;55.95;100999.39;84915;1326;22688;-74
2022/06/12 04:37:40;;;;;;;;;;;;;;;25.24;54.29;100998.86;84890;1325;22589;-74
2022/06/12 04:39:44;;;;;;;;;;;;;;;25.67;52.57;100997.28;84929;1327;24237;-74
2022/06/12 04:41:47;;;;;;;;;;;;;;;25.74;51.40;101000.16;84985;1326;23765;-74
2022/06/12 04:43:51;;;;;;;;;;;;;;;25.67;51.03;100997.92;84830;1331;22600;-74
2022/06/12 04:45:54;;;;;;;;;;;;;;;25.85;50.45;100998.60;84949;1326;22686;-74
2022/06/12 04:47:57;;;;;;;;;;;;;;;26.29;50.19;100997.73;84966;1328;23497;-74
2022/06/12 04:50:01;;;;;;;;;;;;;;;26.82;49.08;100998.27;84977;1326;22616;-74
2022/06/12 04:52:07;;;;;;;;;;;;;;;27.47;48.11;100996.02;85007;1327;22607;-74
2022/06/12 04:54:16;;;;;;;;;;;;;;;28.10;47.03;100993.61;84863;1324;22798;-74
2022/06/12 04:56:40;;;;;;;;;;;;;;;28.79;46.41;100993.68;84852;1321;23781;-73
2022/06/12 04:58:46;;;;;;;;;;;;;;;29.27;44.50;100994.32;84879;1326;22582;-74
2022/06/12 05:00:49;;;;;;;;;;;;;;;29.54;43.29;100994.58;84871;1321;22611;-74
2022/06/12 05:02:59;;;;;;;;;;;;;;;29.93;42.79;100998.80;84853;1329;23921;-74
2022/06/12 05:05:04;;;;;;;;;;;;;;;30.35;41.42;100997.48;84877;1324;22566;-74
2022/06/12 05:07:08;;;;;;;;;;;;;;;30.66;40.09;100997.13;84876;1325;22584;-74
2022/06/12 05:09:12;;;;;;;;;;;;;;;31.13;39.13;100997.31;84851;1326;25416;-75
2022/06/12 05:11:16;;;;;;;;;;;;;;;31.47;37.98;100997.38;84816;1324;22682;-75
2022/06/12 05:13:19;;;;;;;;;;;;;;;31.74;37.30;100990.30;84805;1325;23875;-74
2022/06/12 05:15:22;;;;;;;;;;;;;;;31.99;36.70;100990.16;84834;1326;22591;-74
2022/06/12 05:17:27;;;;;;;;;;;;;;;32.14;37.01;100989.27;84819;1326;22640;-74
2022/06/12 05:19:32;;;;;;;;;;;;;;;32.33;36.21;100991.57;84829;1327;22601;-74
2022/06/12 05:21:46;;;;;;;;;;;;;;;32.41;35.82;100990.28;84870;1325;24268;-74
2022/06/12 05:27:46;;;;;;;;;;;;;;;32.26;34.84;100995.83;84787;1325;23022;-74
2022/06/12 05:29:50;;;;;;;;;;;;;;;31.87;35.13;100990.86;84835;1325;22593;-74
2022/06/12 05:38:51;;;;;;;;;;;;;;;31.64;35.69;100994.77;84012;1334;22600;-74
2022/06/12 05:40:54;;;;;;;;;;;;;;;32.07;35.03;100992.86;84802;1328;22973;-74
2022/06/12 05:43:02;;;;;;;;;;;;;;;32.52;35.02;100995.56;84851;1322;22571;-74
2022/06/12 05:45:08;;;;;;;;;;;;;;;32.92;33.82;100990.27;84873;1326;22587;-74
2022/06/12 05:50:06;;;;;;;;;;;;;;;33.86;31.72;100984.21;84834;1326;22574;-74
2022/06/12 05:52:14;;;;;;;;;;;;;;;34.30;30.67;100985.14;84858;1326;24241;-74
2022/06/12 05:54:25;;;;;;;;;;;;;;;34.59;29.63;100985.84;84873;1324;22572;-74
2022/06/12 05:59:20;;;;;;;;;;;;;;;35.35;28.45;100987.80;84878;1327;23908;-75
2022/06/12 06:01:30;;;;;;;;;;;;;;;35.47;28.13;100992.63;84967;1326;22580;-75
2022/06/12 06:03:40;;;;;;;;;;;;;;;35.59;28.19;100993.27;84933;1324;22909;-75
2022/06/12 06:06:25;;;;;;;;;;;;;;;35.74;27.93;100995.18;84856;1324;23956;-75
2022/06/12 06:08:32;;;;;;;;;;;;;;;35.32;28.21;100990.14;84813;1326;22594;-74
2022/06/12 06:26:15;;;;;;;;;;;;;;;36.93;25.08;100980.17;83055;1348;22781;-75
2022/06/12 06:39:46;;;;;;;;;;;;;;;37.93;23.49;100973.92;82570;1360;25289;-74
2022/06/12 06:41:49;;;;;;;;;;;;;;;37.39;23.54;100973.52;83315;1339;22776;-75
2022/06/12 06:46:17;;;;;;;;;;;;;;;36.54;24.90;100979.38;84666;1330;22747;-76
2022/06/12 06:48:27;;;;;;;;;;;;;;;36.41;25.35;100979.15;84807;1322;22590;-76
2022/06/12 06:50:32;;;;;;;;;;;;;;;36.01;26.00;100978.30;84727;1329;22730;-75
2022/06/12 06:52:36;;;;;;;;;;;;;;;35.64;26.00;100982.06;84825;1324;22567;-75
2022/06/12 06:54:48;;;;;;;;;;;;;;;35.25;26.03;100977.77;84801;1325;22580;-75
2022/06/12 06:56:51;;;;;;;;;;;;;;;34.76;26.60;100976.86;84814;1327;25232;-75
2022/06/12 06:58:55;;;;;;;;;;;;;;;34.29;26.81;100974.45;84807;1322;22663;-75
2022/06/12 07:00:58;;;;;;;;;;;;;;;33.66;27.71;100973.45;84848;1328;22605;-75
2022/06/12 07:03:06;;;;;;;;;;;;;;;32.97;29.23;100970.71;84820;1327;22609;-75
2022/06/12 07:05:13;;;;;;;;;;;;;;;32.28;29.71;100970.33;84833;1326;24971;-75
2022/06/12 07:07:21;;;;;;;;;;;;;;;31.63;30.31;100968.45;84828;1324;24082;-75
2022/06/12 07:09:24;;;;;;;;;;;;;;;31.08;30.50;100966.76;84804;1328;22680;-75
2022/06/12 07:11:28;;;;;;;;;;;;;;;30.56;31.82;100970.05;84842;1321;22569;-76
2022/06/12 07:13:31;;;;;;;;;;;;;;;30.02;32.47;100964.39;84816;1321;22979;-76
2022/06/12 07:15:34;;;;;;;;;;;;;;;29.53;33.09;100965.42;84835;1326;22859;-76
2022/06/12 07:17:38;;;;;;;;;;;;;;;29.05;34.11;100964.09;84830;1327;22569;-76
2022/06/12 07:19:44;;;;;;;;;;;;;;;28.71;35.28;100964.73;84829;1326;25277;-76
2022/06/12 07:21:50;;;;;;;;;;;;;;;28.36;35.35;100964.56;84827;1322;22746;-76
2022/06/12 07:23:56;;;;;;;;;;;;;;;28.07;36.18;100960.19;84798;1326;22580;-76
2022/06/12 07:26:04;;;;;;;;;;;;;;;27.91;37.13;100958.63;84793;1326;24386;-76
2022/06/12 07:28:10;;;;;;;;;;;;;;;27.80;38.23;100959.73;84836;1326;22603;-76
2022/06/12 07:30:16;;;;;;;;;;;;;;;27.79;38.37;100958.70;84781;1330;22604;-75
2022/06/12 07:32:22;;;;;;;;;;;;;;;27.83;38.13;100958.21;84900;1326;22871;-77
2022/06/12 07:34:26;;;;;;;;;;;;;;;27.89;38.45;100955.75;84875;1326;24232;-76
2022/06/12 07:36:35;;;;;;;;;;;;;;;28.12;38.85;100955.58;84865;1325;22730;-77
2022/06/12 07:41:12;;;;;;;;;;;;;;;29.62;36.98;100957.30;84796;1326;25416;-75
2022/06/12 07:46:56;;;;;;;;;;;;;;;30.86;35.92;100952.72;84095;1339;22587;-78
2022/06/12 07:51:27;;;;;;;;;;;;;;;31.57;34.32;100947.90;84476;1332;22593;-76
2022/06/12 07:53:31;;;;;;;;;;;;;;;32.06;33.52;100946.41;84657;1332;23060;-77
2022/06/12 07:55:34;;;;;;;;;;;;;;;32.18;32.47;100946.84;84724;1327;22838;-77
2022/06/12 07:57:39;;;;;;;;;;;;;;;32.12;31.86;100946.79;84836;1321;24010;-77
2022/06/12 07:59:49;;;;;;;;;;;;;;;32.16;32.01;100944.34;84853;1325;22593;-77
2022/06/12 08:01:53;;;;;;;;;;;;;;;32.56;32.25;100941.74;84811;1325;22585;-77
2022/06/12 08:07:20;;;;;;;;;;;;;;;33.23;31.62;100942.27;84735;1328;22586;-78
2022/06/12 08:09:24;;;;;;;;;;;;;;;33.95;29.95;100940.51;84787;1326;22953;-78
2022/06/12 08:11:27;;;;;;;;;;;;;;;34.18;29.28;100944.06;84791;1328;25916;-78
2022/06/12 08:13:30;;;;;;;;;;;;;;;34.22;28.80;100944.96;84773;1329;24313;-78
2022/06/12 08:15:37;;;;;;;;;;;;;;;34.25;28.53;100939.86;84809;1322;22571;-78
2022/06/12 08:17:41;;;;;;;;;;;;;;;34.13;28.29;100938.19;84812;1325;22586;-78
2022/06/12 08:22:14;;;;;;;;;;;;;;;33.83;29.14;100937.68;84797;1327;22625;-78
2022/06/12 08:24:17;;;;;;;;;;;;;;;33.59;29.36;100937.45;84808;1326;24081;-77
2022/06/12 08:26:22;;;;;;;;;;;;;;;33.28;30.08;100939.54;84808;1326;22564;-77
2022/06/12 08:28:31;;;;;;;;;;;;;;;32.88;30.04;100941.30;84883;1326;22595;-76
2022/06/12 08:30:35;;;;;;;;;;;;;;;32.60;30.59;100945.80;84816;1326;23911;-76
2022/06/12 08:32:41;;;;;;;;;;;;;;;32.63;31.11;100943.33;84823;1321;22575;-77
2022/06/12 08:34:46;;;;;;;;;;;;;;;32.39;30.91;100942.73;84833;1327;22598;-77
2022/06/12 08:36:50;;;;;;;;;;;;;;;32.07;31.03;100942.67;84816;1327;22580;-77
2022/06/12 08:38:54;;;;;;;;;;;;;;;31.78;31.63;100944.54;84799;1326;22559;-77
2022/06/12 08:41:00;;;;;;;;;;;;;;;31.51;32.03;100946.10;84819;1328;24294;-77
2022/06/12 08:43:07;;;;;;;;;;;;;;;31.35;32.73;100941.85;84798;1327;23035;-77
2022/06/12 08:45:15;;;;;;;;;;;;;;;31.28;32.40;100935.06;84804;1325;22641;-77
2022/06/12 08:47:23;;;;;;;;;;;;;;;31.30;32.01;100931.40;84828;1327;25305;-75
2022/06/12 08:49:28;;;;;;;;;;;;;;;31.80;33.03;100932.16;84808;1326;22578;-77
2022/06/12 08:51:37;;;;;;;;;;;;;;;32.63;32.60;100930.99;84797;1325;22604;-74
2022/06/12 08:53:45;;;;;;;;;;;;;;;33.11;31.04;100929.59;84815;1327;25955;-76
2022/06/12 08:55:50;;;;;;;;;;;;;;;33.07;30.54;100930.64;84788;1327;22592;-76
2022/06/12 08:57:58;;;;;;;;;;;;;;;33.05;30.90;100929.23;84846;1326;22744;-79
2022/06/12 09:00:05;;;;;;;;;;;;;;;33.35;29.82;100922.59;84816;1326;23972;-77
2022/06/12 09:02:15;;;;;;;;;;;;;;;33.48;29.63;100922.27;84804;1326;22645;-77
2022/06/12 09:04:20;;;;;;;;;;;;;;;33.81;29.73;100919.97;84826;1326;22625;-77
2022/06/12 09:06:29;;;;;;;;;;;;;;;33.78;29.73;100919.98;84792;1325;24200;-78
2022/06/12 09:08:36;;;;;;;;;;;;;;;33.58;29.77;100919.64;84792;1326;24245;-76
2022/06/12 09:10:41;;;;;;;;;;;;;;;33.24;30.26;100923.22;84847;1328;24055;-78
2022/06/12 09:12:47;;;;;;;;;;;;;;;32.83;30.61;100925.34;84829;1326;22604;-77
2022/06/12 09:14:59;;;;;;;;;;;;;;;32.38;31.35;100925.60;84857;1321;24209;-78
2022/06/12 09:17:10;;;;;;;;;;;;;;;32.02;31.81;100924.69;84817;1325;22740;-78
2022/06/12 09:19:23;;;;;;;;;;;;;;;31.74;32.45;100926.61;84862;1326;22643;-77
2022/06/12 09:21:29;;;;;;;;;;;;;;;31.48;32.74;100922.24;84841;1324;24233;-77
2022/06/12 09:23:41;;;;;;;;;;;;;;;31.27;32.52;100919.48;84810;1326;22601;-78
2022/06/12 09:25:48;;;;;;;;;;;;;;;31.11;32.31;100921.40;84791;1329;25276;-77
2022/06/12 09:27:57;;;;;;;;;;;;;;;31.24;33.31;100906.19;84828;1322;22564;-77
2022/06/12 09:30:03;;;;;;;;;;;;;;;31.57;34.15;100914.15;84836;1325;22700;-76
2022/06/12 09:32:13;;;;;;;;;;;;;;;31.95;34.54;100916.84;84824;1326;22574;-77
2022/06/12 09:34:25;;;;;;;;;;;;;;;32.28;33.80;100913.20;84805;1327;22568;-77
2022/06/12 09:36:49;;;;;;;;;;;;;;;32.49;34.08;100911.56;84822;1328;22576;-77
2022/06/12 09:39:06;;;;;;;;;;;;;;;32.64;33.83;100913.38;84798;1328;22838;-77
2022/06/12 09:41:12;;;;;;;;;;;;;;;32.66;33.53;100912.73;84844;1326;22590;-76
2022/06/12 09:43:20;;;;;;;;;;;;;;;32.65;33.19;100909.43;84841;1328;22718;-76
2022/06/12 09:45:26;;;;;;;;;;;;;;;32.49;33.34;100909.98;84806;1325;25417;-76
2022/06/12 09:47:34;;;;;;;;;;;;;;;32.33;33.42;100911.03;84805;1326;22739;-78
2022/06/12 09:49:44;;;;;;;;;;;;;;;32.16;32.77;100906.98;84844;1326;22572;-77
2022/06/12 09:52:08;;;;;;;;;;;;;;;31.90;33.28;100909.52;84825;1328;22619;-77
2022/06/12 09:54:30;;;;;;;;;;;;;;;31.78;33.58;100908.45;84848;1326;22584;-76
2022/06/12 09:56:38;;;;;;;;;;;;;;;31.54;33.36;100912.56;84795;1326;23890;-76
2022/06/12 09:58:44;;;;;;;;;;;;;;;31.36;33.68;100909.63;84799;1326;22589;-76
2022/06/12 10:00:49;;;;;;;;;;;;;;;31.28;33.82;100909.48;84802;1327;23881;-77
2022/06/12 10:02:55;;;;;;;;;;;;;;;31.10;33.46;100914.52;84805;1327;22632;-77
2022/06/12 10:05:02;;;;;;;;;;;;;;;30.91;34.11;100916.35;84775;1327;22727;-77
2022/06/12 10:07:08;;;;;;;;;;;;;;;30.62;33.96;100914.83;84805;1327;22624;-77
2022/06/12 10:09:14;;;;;;;;;;;;;;;30.22;34.50;100914.48;84861;1328;22594;-77
2022/06/12 10:11:20;;;;;;;;;;;;;;;29.93;34.11;100914.08;84804;1328;22821;-77
2022/06/12 10:13:24;;;;;;;;;;;;;;;29.59;34.12;100913.59;84817;1327;24210;-77
2022/06/12 10:15:30;;;;;;;;;;;;;;;29.27;34.44;100914.66;84798;1329;23072;-77
2022/06/12 10:17:35;;;;;;;;;;;;;;;28.97;35.40;100917.02;84814;1328;22773;-77
2022/06/12 10:19:41;;;;;;;;;;;;;;;28.69;35.81;100913.52;84813;1325;22975;-77
2022/06/12 10:21:47;;;;;;;;;;;;;;;28.44;36.80;100914.58;84813;1325;22578;-77
2022/06/12 10:23:51;;;;;;;;;;;;;;;28.21;37.48;100914.43;84819;1327;22580;-77
2022/06/12 10:25:55;;;;;;;;;;;;;;;28.01;37.89;100913.47;84822;1326;23914;-77
2022/06/12 10:28:01;;;;;;;;;;;;;;;27.87;38.86;100907.36;84777;1323;25424;-77
2022/06/12 10:30:07;;;;;;;;;;;;;;;27.75;39.36;100905.02;84921;1327;22664;-74
2022/06/12 10:32:14;;;;;;;;;;;;;;;27.67;40.05;100902.41;84918;1326;22571;-76
2022/06/12 10:34:20;;;;;;;;;;;;;;;27.63;40.72;100903.18;85006;1328;23964;-76
2022/06/12 10:36:28;;;;;;;;;;;;;;;27.52;40.35;100903.02;84958;1327;22569;-77
2022/06/12 10:38:32;;;;;;;;;;;;;;;27.38;40.81;100902.51;84886;1326;22584;-76
2022/06/12 10:40:35;;;;;;;;;;;;;;;27.27;40.70;100899.48;84885;1327;22561;-76
2022/06/12 10:42:42;;;;;;;;;;;;;;;27.12;41.29;100896.61;84844;1325;22864;-75
2022/06/12 10:44:53;;;;;;;;;;;;;;;26.97;41.82;100894.32;84929;1324;22580;-76
2022/06/12 10:47:08;;;;;;;;;;;;;;;26.83;42.30;100893.94;84832;1326;22638;-77
2022/06/12 10:49:17;;;;;;;;;;;;;;;26.76;42.92;100889.79;84828;1326;22562;-77
2022/06/12 10:51:23;;;;;;;;;;;;;;;26.69;43.13;100889.91;84844;1325;22572;-76
2022/06/12 10:53:27;;;;;;;;;;;;;;;26.65;43.42;100884.98;84834;1325;22609;-76
2022/06/12 10:55:44;;;;;;;;;;;;;;;26.64;43.47;100887.25;84825;1327;22656;-76
2022/06/12 10:57:51;;;;;;;;;;;;;;;26.59;43.53;100882.73;84822;1327;22612;-77
2022/06/12 10:59:59;;;;;;;;;;;;;;;26.60;44.19;100884.89;84818;1326;25282;-75
2022/06/12 11:02:27;;;;;;;;;;;;;;;26.71;44.03;100871.34;84787;1327;22643;-76
2022/06/12 11:04:37;;;;;;;;;;;;;;;27.02;44.89;100870.02;84990;1326;22587;-76
2022/06/12 11:06:48;;;;;;;;;;;;;;;27.46;44.00;100869.02;85103;1328;22572;-79
2022/06/12 11:09:13;;;;;;;;;;;;;;;27.69;42.59;100868.52;85228;1327;22726;-77
2022/06/12 11:11:19;;;;;;;;;;;;;;;27.76;42.38;100868.12;84997;1329;22579;-78
2022/06/12 11:13:32;;;;;;;;;;;;;;;27.83;42.57;100864.23;84956;1326;22514;-78
2022/06/12 11:15:47;;;;;;;;;;;;;;;27.84;41.38;100864.47;84837;1325;25440;-77
2022/06/12 11:17:59;;;;;;;;;;;;;;;27.76;41.17;100861.90;84952;1328;24295;-75
2022/06/12 11:20:05;;;;;;;;;;;;;;;27.64;40.76;100853.77;85170;1328;24230;-75
2022/06/12 11:22:15;;;;;;;;;;;;;;;27.66;40.82;100856.59;84864;1326;22585;-76
2022/06/12 11:24:21;;;;;;;;;;;;;;;27.81;41.04;100857.23;84849;1325;24242;-75
2022/06/12 11:26:36;;;;;;;;;;;;;;;27.91;41.00;100852.08;84834;1327;22569;-75
2022/06/12 11:28:46;;;;;;;;;;;;;;;27.95;40.58;100847.93;84894;1327;24247;-75
2022/06/12 11:30:54;;;;;;;;;;;;;;;28.02;40.78;100842.33;84877;1329;22980;-75
2022/06/12 11:33:07;;;;;;;;;;;;;;;28.02;39.44;100842.68;84904;1325;22611;-74
2022/06/12 11:35:22;;;;;;;;;;;;;;;28.04;39.01;100838.54;84882;1329;23571;-75
2022/06/12 11:37:45;;;;;;;;;;;;;;;28.13;38.93;100836.02;84892;1326;24282;-75
2022/06/12 11:39:52;;;;;;;;;;;;;;;28.07;38.72;100833.23;84968;1328;22698;-77
2022/06/12 11:42:16;;;;;;;;;;;;;;;28.08;39.76;100829.00;84954;1329;22656;-77
2022/06/12 11:44:27;;;;;;;;;;;;;;;28.02;39.57;100829.11;84938;1326;22566;-80
2022/06/12 11:46:36;;;;;;;;;;;;;;;27.93;39.62;100826.61;85264;1328;22799;-77
2022/06/12 11:48:54;;;;;;;;;;;;;;;27.89;39.66;100824.70;85153;1324;22540;-77
2022/06/12 11:51:07;;;;;;;;;;;;;;;28.00;39.34;100826.98;85050;1327;22692;-76
2022/06/12 11:53:27;;;;;;;;;;;;;;;28.00;39.16;100821.77;84853;1326;22601;-78
2022/06/12 11:55:35;;;;;;;;;;;;;;;27.97;39.29;100817.40;84835;1328;22584;-81
2022/06/12 11:57:45;;;;;;;;;;;;;;;27.99;39.24;100815.98;84655;1328;310565;-79
2022/06/12 11:59:57;;;;;;;;;;;;;;;27.97;38.54;100810.98;84868;1326;22603;-79
2022/06/12 12:02:03;;;;;;;;;;;;;;;27.90;38.32;100808.81;84889;1327;22718;-79
2022/06/12 12:04:32;;;;;;;;;;;;;;;27.90;38.67;100803.76;84860;1326;25417;-78
2022/06/12 12:06:42;;;;;;;;;;;;;;;27.95;38.67;100797.30;84864;1324;22688;-79
2022/06/12 12:08:53;;;;;;;;;;;;;;;28.00;38.67;100797.19;84936;1326;22741;-79
2022/06/12 12:11:00;;;;;;;;;;;;;;;28.05;38.76;100796.87;84975;1324;23963;-78
2022/06/12 12:13:09;;;;;;;;;;;;;;;28.10;37.90;100794.88;84855;1326;22847;-79
2022/06/12 12:15:18;;;;;;;;;;;;;;;28.05;37.98;100790.02;84903;1327;22638;-79
2022/06/12 12:17:24;;;;;;;;;;;;;;;28.08;37.93;100786.80;84885;1328;25955;-78
2022/06/12 12:19:32;;;;;;;;;;;;;;;28.06;37.57;100786.52;84815;1326;22572;-79
2022/06/12 12:21:37;;;;;;;;;;;;;;;28.04;37.57;100782.45;84811;1328;22565;-79
2022/06/12 12:23:42;;;;;;;;;;;;;;;28.03;37.23;100777.70;84821;1326;22567;-80
2022/06/12 12:25:50;;;;;;;;;;;;;;;27.91;37.23;100784.36;84840;1327;24206;-80
2022/06/12 12:27:58;;;;;;;;;;;;;;;27.80;37.85;100778.13;84853;1325;23980;-80
2022/06/12 12:30:01;;;;;;;;;;;;;;;27.82;38.39;100779.71;84832;1327;22575;-79
2022/06/12 12:32:08;;;;;;;;;;;;;;;27.88;38.18;100776.23;84850;1326;22755;-79
2022/06/12 12:34:12;;;;;;;;;;;;;;;27.86;37.62;100776.80;84881;1326;24306;-79
2022/06/12 12:41:17;;;;;;;;;;;;;;;28.16;38.32;100768.23;84725;1327;22552;-78
2022/06/12 12:43:21;;;;;;;;;;;;;;;28.26;38.46;100763.88;84833;1328;22893;-78
2022/06/12 12:45:30;;;;;;;;;;;;;;;28.25;37.55;100762.27;84806;1326;22569;-77
2022/06/12 12:47:37;;;;;;;;;;;;;;;28.10;36.87;100761.11;84833;1326;22560;-79
2022/06/12 12:49:40;;;;;;;;;;;;;;;27.96;37.02;100762.10;84870;1328;22585;-79
2022/06/12 12:51:47;;;;;;;;;;;;;;;27.94;37.82;100760.11;84847;1324;22607;-74
2022/06/12 12:53:52;;;;;;;;;;;;;;;28.01;38.30;100761.05;85232;1328;22551;-75
2022/06/12 12:56:05;;;;;;;;;;;;;;;28.10;38.67;100757.44;85296;1326;22577;-76
2022/06/12 12:58:15;;;;;;;;;;;;;;;28.17;38.08;100759.69;85212;1327;22592;-75
2022/06/12 13:00:33;;;;;;;;;;;;;;;28.12;36.66;100753.52;84992;1328;22606;-76
2022/06/12 13:02:40;;;;;;;;;;;;;;;27.90;36.13;100756.28;84955;1327;22589;-76
2022/06/12 13:04:44;;;;;;;;;;;;;;;27.68;36.90;100752.77;84930;1325;22826;-76
2022/06/12 13:07:16;;;;;;;;;;;;;;;27.51;37.01;100755.17;84994;1329;22988;-77
2022/06/12 13:09:40;;;;;;;;;;;;;;;27.47;37.83;100754.48;85028;1325;22645;-74
2022/06/12 13:12:07;;;;;;;;;;;;;;;27.51;37.55;100750.30;85065;1326;22735;-77
2022/06/12 13:14:27;;;;;;;;;;;;;;;27.44;37.83;100750.50;85301;1330;22558;-77
2022/06/12 13:16:41;;;;;;;;;;;;;;;27.32;37.56;100754.20;85335;1329;24185;-77
2022/06/12 13:18:59;;;;;;;;;;;;;;;27.26;38.18;100753.02;85192;1322;22589;-76
2022/06/12 13:21:06;;;;;;;;;;;;;;;27.31;38.35;100750.73;85040;1324;22577;-79
2022/06/12 13:23:23;;;;;;;;;;;;;;;27.43;37.98;100751.88;84804;1326;22580;-78
2022/06/12 13:25:30;;;;;;;;;;;;;;;27.48;38.06;100749.34;84888;1326;22594;-78
2022/06/12 13:27:35;;;;;;;;;;;;;;;27.49;38.03;100748.00;84860;1326;22602;-79
2022/06/12 13:29:43;;;;;;;;;;;;;;;27.55;37.81;100746.09;84944;1327;24269;-79
2022/06/12 13:31:57;;;;;;;;;;;;;;;27.63;37.62;100746.73;84887;1327;24084;-79
2022/06/12 13:34:03;;;;;;;;;;;;;;;27.58;36.85;100751.39;84892;1326;22662;-79
2022/06/12 13:36:14;;;;;;;;;;;;;;;27.47;36.89;100753.67;84853;1326;22831;-79
2022/06/12 13:38:20;;;;;;;;;;;;;;;27.42;37.07;100752.61;84857;1327;23955;-78
2022/06/12 13:40:26;;;;;;;;;;;;;;;27.41;37.50;100754.37;84863;1321;22570;-79
2022/06/12 13:42:29;;;;;;;;;;;;;;;27.49;37.95;100751.16;84853;1327;24917;-78
2022/06/12 13:44:40;;;;;;;;;;;;;;;27.57;37.24;100750.77;84866;1326;25413;-79
2022/06/12 13:46:43;;;;;;;;;;;;;;;27.57;36.53;100749.36;84859;1328;25340;-79
2022/06/12 13:48:46;;;;;;;;;;;;;;;27.48;36.44;100748.47;84859;1328;22581;-77
2022/06/12 13:50:52;;;;;;;;;;;;;;;27.35;36.41;100748.52;84864;1327;22693;-78
2022/06/12 13:52:59;;;;;;;;;;;;;;;27.20;36.78;100746.10;84819;1326;24262;-77
2022/06/12 13:55:03;;;;;;;;;;;;;;;27.08;36.94;100747.20;84867;1327;25423;-79
2022/06/12 13:57:11;;;;;;;;;;;;;;;26.93;36.93;100750.62;84887;1328;22583;-79
2022/06/12 13:59:15;;;;;;;;;;;;;;;26.80;37.39;100746.20;84854;1326;22653;-78
2022/06/12 14:01:22;;;;;;;;;;;;;;;26.73;37.68;100748.13;84810;1326;25255;-78
2022/06/12 14:03:26;;;;;;;;;;;;;;;26.72;38.39;100745.34;84865;1326;22608;-78
2022/06/12 14:05:30;;;;;;;;;;;;;;;26.82;38.03;100747.16;84850;1326;22589;-78
2022/06/12 14:07:34;;;;;;;;;;;;;;;26.88;36.83;100744.14;84810;1326;22626;-78
2022/06/12 14:09:37;;;;;;;;;;;;;;;26.92;36.69;100735.84;84816;1325;22569;-78
2022/06/12 14:11:40;;;;;;;;;;;;;;;26.95;36.76;100733.96;84808;1325;22848;-77
2022/06/12 14:13:45;;;;;;;;;;;;;;;26.97;36.69;100733.63;84790;1328;22603;-77
2022/06/12 14:15:48;;;;;;;;;;;;;;;26.97;36.24;100732.15;84796;1327;22839;-77
2022/06/12 14:17:52;;;;;;;;;;;;;;;26.93;36.19;100735.58;84796;1326;24303;-77
2022/06/12 14:20:07;;;;;;;;;;;;;;;26.91;36.90;100734.37;84807;1326;22606;-78
2022/06/12 14:22:15;;;;;;;;;;;;;;;26.93;37.02;100736.79;84818;1326;22575;-78
2022/06/12 14:24:26;;;;;;;;;;;;;;;26.95;36.71;100732.85;84835;1325;25431;-78
2022/06/12 14:26:37;;;;;;;;;;;;;;;26.95;36.66;100732.15;84840;1325;22625;-79
2022/06/12 14:28:41;;;;;;;;;;;;;;;26.91;36.50;100734.38;84887;1328;22595;-78
2022/06/12 14:30:45;;;;;;;;;;;;;;;26.78;36.49;100726.59;84887;1321;22586;-79
2022/06/12 14:32:49;;;;;;;;;;;;;;;26.70;36.72;100724.42;84981;1328;22629;-79
2022/06/12 14:35:15;;;;;;;;;;;;;;;26.70;37.19;100726.48;84912;1326;22723;-79
2022/06/12 14:37:25;;;;;;;;;;;;;;;26.71;37.21;100724.96;84859;1326;25406;-78
2022/06/12 14:39:31;;;;;;;;;;;;;;;26.72;37.09;100721.98;84863;1324;22560;-79
2022/06/12 14:41:35;;;;;;;;;;;;;;;26.72;36.72;100722.89;84857;1327;22648;-80
2022/06/12 14:43:38;;;;;;;;;;;;;;;26.68;36.79;100720.74;84912;1325;22730;-80
2022/06/12 14:45:46;;;;;;;;;;;;;;;26.65;36.85;100716.25;84904;1327;23979;-80